Tadley, United Kingdom
Current Conditions -  °F | °C
As of 7:50 AM on Wednesday 26 Nov 2014 (Local Time) from EGVO Reporting Station
Drizzle Drizzle  
Wind Chill: 45°   Ceiling: 200
Heat Index: 45°   Visibility: 0.31mi
Dew Point: 45°   Wind: 3mph
Humidity: 100%   Direction: 30°NNE
Pressure: 29.85"   Gusts: NA
Location:  51.35°N, 1.13°W
Report Text: EGVO 260750Z 03003KT 0500 -DZ OVC002 07/07 Q1011 RED TEMPO 1200 BR AMB
Loading
Personal Weather Stations






























Interactive Weather Map New forecast layout! Learn more

10-Day Weather Forecast

Advertisements
Track Severe Weather on mobile